createdAt,value
2022-12-27T00:00:23.016Z,79.41
2022-12-27T00:03:29.350Z,79.36
2022-12-27T00:06:35.924Z,79.41
2022-12-27T00:09:42.176Z,79.40
2022-12-27T00:12:46.713Z,79.42
2022-12-27T00:15:52.922Z,79.52
2022-12-27T00:18:57.652Z,79.39
2022-12-27T00:22:05.439Z,79.47
2022-12-27T00:25:12.837Z,79.66
2022-12-27T00:28:19.076Z,79.64
2022-12-27T00:31:24.261Z,79.51
2022-12-27T00:34:30.328Z,79.61
2022-12-27T00:37:36.539Z,79.61
2022-12-27T00:40:41.876Z,79.68
2022-12-27T00:43:48.609Z,79.57
2022-12-27T00:46:54.832Z,79.45
2022-12-27T00:49:59.336Z,79.48
2022-12-27T00:53:05.602Z,79.36
2022-12-27T00:56:15.364Z,79.49
2022-12-27T00:59:21.493Z,79.40
2022-12-27T01:02:26.196Z,79.35
2022-12-27T01:05:33.060Z,79.37
2022-12-27T01:08:39.327Z,79.43
2022-12-27T01:11:43.828Z,79.37
2022-12-27T01:14:50.066Z,79.33
2022-12-27T01:17:56.378Z,79.26
2022-12-27T01:21:05.393Z,79.31
2022-12-27T01:24:11.771Z,79.09
2022-12-27T01:27:18.043Z,79.23
2022-12-27T01:30:24.340Z,79.31
2022-12-27T01:33:30.536Z,79.21
2022-12-27T01:36:35.069Z,79.32
2022-12-27T01:39:41.381Z,79.28
2022-12-27T01:42:55.749Z,79.25
2022-12-27T01:46:02.071Z,79.28
2022-12-27T01:49:09.738Z,79.20
2022-12-27T01:52:16.737Z,79.22
2022-12-27T01:55:29.793Z,79.21
2022-12-27T01:58:39.436Z,79.22
2022-12-27T02:01:48.568Z,79.15
2022-12-27T02:04:56.632Z,79.20
2022-12-27T02:08:10.329Z,79.10
2022-12-27T02:11:17.879Z,79.14
2022-12-27T02:14:28.721Z,79.19
2022-12-27T02:17:35.898Z,79.02
2022-12-27T02:20:57.757Z,79.10
2022-12-27T02:24:48.540Z,79.04
2022-12-27T02:28:15.402Z,79.06
2022-12-27T02:31:26.159Z,79.06
2022-12-27T02:34:37.471Z,79.22
2022-12-27T02:37:48.700Z,79.13
2022-12-27T02:41:14.208Z,79.01
2022-12-27T02:44:38.397Z,79.05
2022-12-27T02:48:04.026Z,79.04
2022-12-27T02:51:40.600Z,78.94
2022-12-27T02:55:02.550Z,78.88
2022-12-27T02:58:25.624Z,78.92
2022-12-27T03:02:06.097Z,78.82
2022-12-27T03:05:25.438Z,78.72
2022-12-27T03:08:37.264Z,78.68
2022-12-27T03:12:08.594Z,78.61
2022-12-27T03:15:49.691Z,78.63
2022-12-27T03:19:07.919Z,78.66
2022-12-27T03:22:34.359Z,78.52
2022-12-27T03:25:43.601Z,78.44
2022-12-27T03:29:09.422Z,78.55
2022-12-27T03:32:34.633Z,78.47
2022-12-27T03:35:44.242Z,78.46
2022-12-27T03:38:55.748Z,78.30
2022-12-27T03:42:25.577Z,78.26
2022-12-27T03:45:58.720Z,78.35
2022-12-27T03:49:20.168Z,78.12
2022-12-27T03:52:32.121Z,78.18
2022-12-27T03:55:38.774Z,78.24
2022-12-27T03:58:44.926Z,78.09
2022-12-27T04:01:49.266Z,78.09
2022-12-27T04:04:55.631Z,78.08
2022-12-27T04:08:19.403Z,78.26
2022-12-27T04:11:42.763Z,78.35
2022-12-27T04:15:06.584Z,78.32
2022-12-27T04:18:30.425Z,78.23
2022-12-27T04:21:53.999Z,78.39
2022-12-27T04:25:17.467Z,78.50
2022-12-27T04:28:40.934Z,78.65
2022-12-27T04:32:04.445Z,78.54
2022-12-27T04:35:11.160Z,78.49
2022-12-27T04:38:17.180Z,78.56
2022-12-27T04:41:40.548Z,78.49
2022-12-27T04:45:05.427Z,78.60
2022-12-27T04:48:34.429Z,78.79
2022-12-27T04:52:12.776Z,78.89
2022-12-27T04:55:22.664Z,78.81
2022-12-27T04:58:29.498Z,78.88
2022-12-27T05:01:53.564Z,79.11
2022-12-27T05:04:59.895Z,79.29
2022-12-27T05:08:22.579Z,79.22
2022-12-27T05:11:46.548Z,79.05
2022-12-27T05:14:52.757Z,79.10
2022-12-27T05:17:57.755Z,79.14
2022-12-27T05:21:07.796Z,79.13
2022-12-27T05:24:31.678Z,79.40
2022-12-27T05:27:37.904Z,79.36
2022-12-27T05:30:43.104Z,79.53
2022-12-27T05:33:49.463Z,79.51
2022-12-27T05:36:55.816Z,79.34
2022-12-27T05:40:02.104Z,79.26
2022-12-27T05:43:08.337Z,79.48
2022-12-27T05:46:13.743Z,79.61
2022-12-27T05:49:20.087Z,79.40
2022-12-27T05:52:26.334Z,79.41
2022-12-27T05:55:30.882Z,79.33
2022-12-27T05:58:37.107Z,79.37
2022-12-27T06:01:43.440Z,79.37
2022-12-27T06:04:49.764Z,79.57
2022-12-27T06:07:54.387Z,79.67
2022-12-27T06:11:09.261Z,79.96
2022-12-27T06:14:16.341Z,79.78
2022-12-27T06:17:22.608Z,79.92
2022-12-27T06:20:27.096Z,80.03
2022-12-27T06:23:33.697Z,80.02
2022-12-27T06:26:40.135Z,79.99
2022-12-27T06:29:46.554Z,80.18
2022-12-27T06:32:52.835Z,80.16
2022-12-27T06:36:14.336Z,80.13
2022-12-27T06:39:21.180Z,80.06
2022-12-27T06:42:27.462Z,80.20
2022-12-27T06:45:32.184Z,80.32
2022-12-27T06:48:38.818Z,80.20
2022-12-27T06:51:44.881Z,80.18
2022-12-27T06:54:51.315Z,80.35
2022-12-27T06:57:57.641Z,80.48
2022-12-27T07:01:07.706Z,80.42
2022-12-27T07:04:13.997Z,80.52
2022-12-27T07:07:18.503Z,80.72
2022-12-27T07:10:27.181Z,80.61
2022-12-27T07:13:36.662Z,80.64
2022-12-27T07:16:42.947Z,80.49
2022-12-27T07:19:48.385Z,80.47
2022-12-27T07:22:54.599Z,80.25
2022-12-27T07:26:04.963Z,79.93
2022-12-27T07:29:12.353Z,79.94
2022-12-27T07:32:18.786Z,79.82
2022-12-27T07:35:24.912Z,79.74
2022-12-27T07:38:31.154Z,79.82
2022-12-27T07:41:38.005Z,79.88
2022-12-27T07:44:44.334Z,79.83
2022-12-27T07:47:48.819Z,79.82
2022-12-27T07:50:58.432Z,79.72
2022-12-27T07:54:04.841Z,80.02
2022-12-27T07:57:09.308Z,80.06
2022-12-27T08:00:17.061Z,80.17
2022-12-27T08:03:23.061Z,80.33
2022-12-27T08:06:31.970Z,80.16
2022-12-27T08:09:42.199Z,80.08
2022-12-27T08:12:48.440Z,80.20
2022-12-27T08:15:55.785Z,80.10
2022-12-27T08:19:06.515Z,80.16
2022-12-27T08:22:14.702Z,80.19
2022-12-27T08:25:21.684Z,80.14
2022-12-27T08:28:31.667Z,80.11
2022-12-27T08:31:37.960Z,80.13
2022-12-27T08:34:42.463Z,80.11
2022-12-27T08:37:48.747Z,79.99
2022-12-27T08:40:53.231Z,80.03
2022-12-27T08:43:59.523Z,80.07
2022-12-27T08:47:04.594Z,80.23
2022-12-27T08:50:11.949Z,80.09
2022-12-27T08:53:18.183Z,80.19
2022-12-27T08:56:25.227Z,80.34
2022-12-27T08:59:31.612Z,80.35
2022-12-27T09:02:36.175Z,80.04
2022-12-27T09:05:42.533Z,79.93
2022-12-27T09:08:47.980Z,79.96
2022-12-27T09:11:53.937Z,80.08
2022-12-27T09:15:00.208Z,80.14
2022-12-27T09:18:04.743Z,80.29
2022-12-27T09:21:13.019Z,80.25
2022-12-27T09:24:19.111Z,80.25
2022-12-27T09:27:25.659Z,80.19
2022-12-27T09:30:31.854Z,80.16
2022-12-27T09:33:38.716Z,80.08
2022-12-27T09:36:45.079Z,80.00
2022-12-27T09:39:49.613Z,80.04
2022-12-27T09:43:18.128Z,79.71
2022-12-27T09:46:33.997Z,79.78
2022-12-27T09:49:44.549Z,79.55
2022-12-27T09:53:04.732Z,79.61
2022-12-27T09:56:15.672Z,79.45
2022-12-27T09:59:26.499Z,79.55
2022-12-27T10:02:34.882Z,79.47
2022-12-27T10:05:46.171Z,79.33
2022-12-27T10:08:59.514Z,79.55
2022-12-27T10:12:19.036Z,79.46
2022-12-27T10:15:33.295Z,79.40
2022-12-27T10:18:50.384Z,79.27
2022-12-27T10:22:10.869Z,79.28
2022-12-27T10:25:20.599Z,79.39
2022-12-27T10:28:31.455Z,79.45
2022-12-27T10:31:46.284Z,79.06
2022-12-27T10:34:57.899Z,79.06
2022-12-27T10:38:07.993Z,79.19
2022-12-27T10:41:30.829Z,79.11
2022-12-27T10:44:37.575Z,78.82
2022-12-27T10:47:44.045Z,78.85
2022-12-27T10:50:57.778Z,78.60
2022-12-27T10:54:06.216Z,78.62
2022-12-27T10:57:28.880Z,78.42
2022-12-27T11:00:34.956Z,78.25
2022-12-27T11:03:41.158Z,78.18
2022-12-27T11:06:48.925Z,78.09
2022-12-27T11:10:09.087Z,78.12
2022-12-27T11:13:21.648Z,77.99
2022-12-27T11:16:36.240Z,78.00
2022-12-27T11:19:47.306Z,78.01
2022-12-27T11:22:56.111Z,78.04
2022-12-27T11:26:04.281Z,77.89
2022-12-27T11:29:21.056Z,77.71
2022-12-27T11:32:27.699Z,77.69
2022-12-27T11:35:36.178Z,77.64
2022-12-27T11:38:47.742Z,77.32
2022-12-27T11:41:58.329Z,77.23
2022-12-27T11:45:13.717Z,77.20
2022-12-27T11:48:31.547Z,76.98
2022-12-27T11:51:57.887Z,76.91
2022-12-27T11:55:28.280Z,76.76
2022-12-27T11:59:05.112Z,76.47
2022-12-27T12:02:33.609Z,76.52
2022-12-27T12:06:05.775Z,76.28
2022-12-27T12:09:24.065Z,76.23
2022-12-27T12:12:53.343Z,75.94
2022-12-27T12:16:11.181Z,75.97
2022-12-27T12:19:32.269Z,75.70
2022-12-27T12:22:56.264Z,75.70
2022-12-27T12:26:15.050Z,75.72
2022-12-27T12:29:38.245Z,75.68
2022-12-27T12:33:01.831Z,75.45
2022-12-27T12:36:35.301Z,75.35
2022-12-27T12:40:05.579Z,75.31
2022-12-27T12:43:26.385Z,75.05
2022-12-27T12:46:39.805Z,74.97
2022-12-27T12:49:59.934Z,74.85
2022-12-27T12:53:23.786Z,74.67
2022-12-27T12:56:48.297Z,74.65
2022-12-27T13:00:12.753Z,74.38
2022-12-27T13:03:46.232Z,74.31
2022-12-27T13:07:14.111Z,74.04
2022-12-27T13:10:46.066Z,74.07
2022-12-27T13:14:07.943Z,73.94
2022-12-27T13:17:21.229Z,73.86
2022-12-27T13:20:55.619Z,73.73
2022-12-27T13:24:13.754Z,73.73
2022-12-27T13:27:28.812Z,73.48
2022-12-27T13:30:41.217Z,73.51
2022-12-27T13:33:59.357Z,73.49
2022-12-27T13:37:20.981Z,73.30
2022-12-27T13:41:06.342Z,73.10
2022-12-27T13:44:30.906Z,73.10
2022-12-27T13:47:59.062Z,73.02
2022-12-27T13:51:23.175Z,72.84
2022-12-27T13:54:50.483Z,72.78
2022-12-27T13:58:12.396Z,72.83
2022-12-27T14:01:38.191Z,72.65
2022-12-27T14:04:59.493Z,72.54
2022-12-27T14:08:16.228Z,72.51
2022-12-27T14:11:38.774Z,72.48
2022-12-27T14:14:47.136Z,72.39
2022-12-27T14:18:03.264Z,72.43
2022-12-27T14:21:21.094Z,72.24
2022-12-27T14:25:04.125Z,72.33
2022-12-27T14:28:42.919Z,72.12
2022-12-27T14:32:37.743Z,71.98
2022-12-27T14:36:12.964Z,71.85
2022-12-27T14:40:00.959Z,71.79
2022-12-27T14:43:57.696Z,71.72
2022-12-27T14:47:43.443Z,71.75
2022-12-27T14:55:26.510Z,71.85
2022-12-27T14:58:48.181Z,71.62
2022-12-27T15:02:07.707Z,71.54
2022-12-27T15:05:40.193Z,71.57
2022-12-27T15:09:07.515Z,71.44
2022-12-27T15:12:22.519Z,71.38
2022-12-27T15:15:37.825Z,71.39
2022-12-27T15:19:17.557Z,71.35
2022-12-27T15:22:33.337Z,71.26
2022-12-27T15:25:53.080Z,71.34
2022-12-27T15:29:18.349Z,71.43
2022-12-27T15:32:36.047Z,71.32
2022-12-27T15:35:56.200Z,71.42
2022-12-27T15:39:03.300Z,71.18
2022-12-27T15:42:31.605Z,70.96
2022-12-27T15:45:54.843Z,71.16
2022-12-27T15:49:19.124Z,71.02
2022-12-27T15:52:37.529Z,70.86
2022-12-27T15:56:10.826Z,70.89
2022-12-27T15:59:46.852Z,70.93
2022-12-27T16:02:59.258Z,70.76
2022-12-27T16:06:08.142Z,70.79
2022-12-27T16:09:36.441Z,70.81
2022-12-27T16:12:43.435Z,70.59
2022-12-27T16:15:55.972Z,70.64
2022-12-27T16:19:25.439Z,70.56
2022-12-27T16:22:36.811Z,70.51
2022-12-27T16:25:44.953Z,70.60
2022-12-27T16:28:59.201Z,70.59
2022-12-27T16:32:24.778Z,70.55
2022-12-27T16:35:31.707Z,70.43
2022-12-27T16:38:45.339Z,70.39
2022-12-27T16:42:05.176Z,70.35
2022-12-27T16:45:37.034Z,70.44
2022-12-27T16:49:00.507Z,70.33
2022-12-27T16:52:35.000Z,70.38
2022-12-27T16:56:13.969Z,70.16
2022-12-27T16:59:54.828Z,70.28
2022-12-27T17:03:32.327Z,70.25
2022-12-27T17:06:59.535Z,70.23
2022-12-27T17:10:36.309Z,70.18
2022-12-27T17:13:48.764Z,70.17
2022-12-27T17:17:00.708Z,70.03
2022-12-27T17:20:15.996Z,69.92
2022-12-27T17:23:23.326Z,69.98
2022-12-27T17:26:50.236Z,69.96
2022-12-27T17:30:21.375Z,70.01
2022-12-27T17:33:59.657Z,69.96
2022-12-27T17:37:16.868Z,69.87
2022-12-27T17:40:33.775Z,69.90
2022-12-27T17:44:07.380Z,69.73
2022-12-27T17:47:40.340Z,69.70
2022-12-27T17:50:47.813Z,69.74
2022-12-27T17:54:13.279Z,69.94
2022-12-27T17:57:38.702Z,69.81
2022-12-27T18:00:56.289Z,69.95
2022-12-27T18:04:03.203Z,69.86
2022-12-27T18:07:14.294Z,69.84
2022-12-27T18:10:25.992Z,69.78
2022-12-27T18:13:35.506Z,69.79
2022-12-27T18:16:42.899Z,69.72
2022-12-27T18:19:49.203Z,69.83
2022-12-27T18:23:07.966Z,69.69
2022-12-27T18:26:18.686Z,69.68
2022-12-27T18:29:24.944Z,69.85
2022-12-27T18:32:32.598Z,69.58
2022-12-27T18:35:39.307Z,69.57
2022-12-27T18:38:48.187Z,69.71
2022-12-27T18:41:56.029Z,69.44
2022-12-27T18:45:06.658Z,69.52
2022-12-27T18:48:14.113Z,69.72
2022-12-27T18:51:20.693Z,69.52
2022-12-27T18:54:36.493Z,69.49
2022-12-27T18:57:42.981Z,69.48
2022-12-27T19:00:53.375Z,69.38
2022-12-27T19:04:21.630Z,69.47
2022-12-27T19:07:28.099Z,69.45
2022-12-27T19:10:34.751Z,69.43
2022-12-27T19:13:49.074Z,69.27
2022-12-27T19:16:58.185Z,69.40
2022-12-27T19:20:06.600Z,69.54
2022-12-27T19:23:31.901Z,69.41
2022-12-27T19:26:38.278Z,69.22
2022-12-27T19:29:51.137Z,69.38
2022-12-27T19:32:57.358Z,69.35
2022-12-27T19:36:09.813Z,69.24
2022-12-27T19:39:22.417Z,69.26
2022-12-27T19:42:30.616Z,69.23
2022-12-27T19:45:36.821Z,69.23
2022-12-27T19:48:43.947Z,69.17
2022-12-27T19:51:50.922Z,69.18
2022-12-27T19:55:03.445Z,69.19
2022-12-27T19:58:17.170Z,69.08
2022-12-27T20:01:23.506Z,69.05
2022-12-27T20:04:30.567Z,69.15
2022-12-27T20:07:38.036Z,69.15
2022-12-27T20:10:45.084Z,69.10
2022-12-27T20:13:52.503Z,69.11
2022-12-27T20:16:59.330Z,69.25
2022-12-27T20:20:06.739Z,69.32
2022-12-27T20:23:13.514Z,69.07
2022-12-27T20:26:24.622Z,69.05
2022-12-27T20:29:31.391Z,69.19
2022-12-27T20:32:37.568Z,69.18
2022-12-27T20:35:44.243Z,69.20
2022-12-27T20:38:50.789Z,69.07
2022-12-27T20:41:57.059Z,68.99
2022-12-27T20:45:03.341Z,69.03
2022-12-27T20:48:09.532Z,69.02
2022-12-27T20:51:18.552Z,69.02
2022-12-27T20:54:25.173Z,69.28
2022-12-27T20:57:31.522Z,69.27
2022-12-27T21:00:41.232Z,69.09
2022-12-27T21:03:47.892Z,68.97
2022-12-27T21:06:54.589Z,68.98
2022-12-27T21:10:00.911Z,68.98
2022-12-27T21:13:05.588Z,68.95
2022-12-27T21:16:15.671Z,68.96
2022-12-27T21:19:22.188Z,68.96
2022-12-27T21:22:28.881Z,68.95
2022-12-27T21:25:35.539Z,68.92
2022-12-27T21:28:42.044Z,68.88
2022-12-27T21:31:48.511Z,68.88
2022-12-27T21:34:54.791Z,68.86
2022-12-27T21:37:59.335Z,68.89
2022-12-27T21:41:09.700Z,68.84
2022-12-27T21:44:16.664Z,68.83
2022-12-27T21:47:23.461Z,68.99
2022-12-27T21:50:35.436Z,68.91
2022-12-27T21:53:44.252Z,68.99
2022-12-27T21:56:50.481Z,68.96
2022-12-27T21:59:56.777Z,68.92
2022-12-27T22:03:01.552Z,68.93
2022-12-27T22:06:15.062Z,68.87
2022-12-27T22:09:21.295Z,68.96
2022-12-27T22:12:27.556Z,68.97
2022-12-27T22:15:33.823Z,69.04
2022-12-27T22:18:41.466Z,69.12
2022-12-27T22:21:47.663Z,69.05
2022-12-27T22:24:54.011Z,68.92
2022-12-27T22:27:58.492Z,69.04
2022-12-27T22:31:10.090Z,69.05
2022-12-27T22:34:16.342Z,69.14
2022-12-27T22:37:22.625Z,69.00
2022-12-27T22:40:37.465Z,69.03
2022-12-27T22:43:57.073Z,69.11
2022-12-27T22:47:25.641Z,68.87
2022-12-27T22:50:30.032Z,69.20
2022-12-27T22:53:36.455Z,69.11
2022-12-27T22:56:44.145Z,68.95
2022-12-27T22:59:50.710Z,68.99
2022-12-27T23:02:56.948Z,69.17
2022-12-27T23:06:03.392Z,69.17
2022-12-27T23:09:10.121Z,69.14
2022-12-27T23:12:16.676Z,69.19
2022-12-27T23:15:22.950Z,69.06
2022-12-27T23:18:30.058Z,69.07
2022-12-27T23:21:36.734Z,69.07
2022-12-27T23:24:42.971Z,69.25
2022-12-27T23:27:49.274Z,69.08
2022-12-27T23:30:53.848Z,69.04
2022-12-27T23:34:00.371Z,69.03
2022-12-27T23:37:06.649Z,69.07
2022-12-27T23:40:14.643Z,69.10
2022-12-27T23:43:51.159Z,69.03
2022-12-27T23:46:46.926Z,69.14
2022-12-27T23:49:51.479Z,69.18
2022-12-27T23:52:57.774Z,69.06
2022-12-27T23:56:06.619Z,69.19
2022-12-27T23:59:12.834Z,69.19
